KFNT/FNT METAR and TAF weather

Enter ICAO airport designator
Station Type Date Time Source
KFNT METAR 2020/06/06 01:53 UTC NOAA

KFNT 060153Z 28009KT 10SM CLR 27/17 A2985 RMK AO2 SLP102 T02670167


Station Type Date Time Source
KFNT Decoded METAR 2020/06/06 01:53 UTC NOAA

FLINT BISHOP INTERNATIONAL AIRPORT, MI, United States (KFNT) 42-58N 83-45W 233M
Jun 05, 2020 - 09:53 PM EDT / 2020.06.06 0153 UTC
Wind: from the W (280 degrees) at 10 MPH (9 KT):0
Visibility: 10 mile(s):0
Sky conditions: clear
Temperature: 80.1 F (26.7 C)
Dew Point: 62.1 F (16.7 C)
Relative Humidity: 54%
Pressure (altimeter): 29.85 in. Hg (1010 hPa)
ob: KFNT 060153Z 28009KT 10SM CLR 27/17 A2985 RMK AO2 SLP102 T02670167
cycle: 2

Station Type Date Time Source
KFNT TAF 2020/06/05 18:42 UTC NOAA

TAF KFNT 051739Z 0518/0618 26010KT P6SM BKN050
TEMPO 0522/0601 6SM -TSRA OVC035CB
FM060100 32006KT P6SM BKN030
FM060500 34008KT P6SM SCT035
FM061200 31007KT P6SM SCT250

Example: see airport list